sensor_id;sensor_type;location;lat;lon;timestamp;P1;durP1;ratioP1;P2;durP2;ratioP2
29906;SDS011;16776;50.958;10.994;2023-02-16T00:00:51;7.60;;;3.95;;
29906;SDS011;16776;50.958;10.994;2023-02-16T00:03:19;6.32;;;3.53;;
29906;SDS011;16776;50.958;10.994;2023-02-16T00:05:49;4.90;;;3.20;;
29906;SDS011;16776;50.958;10.994;2023-02-16T00:08:16;5.65;;;3.70;;
29906;SDS011;16776;50.958;10.994;2023-02-16T00:10:43;5.45;;;3.10;;
29906;SDS011;16776;50.958;10.994;2023-02-16T00:13:31;4.90;;;2.95;;
29906;SDS011;16776;50.958;10.994;2023-02-16T00:16:09;5.57;;;3.78;;
29906;SDS011;16776;50.958;10.994;2023-02-16T00:18:38;4.70;;;2.72;;
29906;SDS011;16776;50.958;10.994;2023-02-16T00:21:06;4.72;;;3.10;;
29906;SDS011;16776;50.958;10.994;2023-02-16T00:23:33;6.68;;;3.80;;
29906;SDS011;16776;50.958;10.994;2023-02-16T00:25:59;5.72;;;3.47;;
29906;SDS011;16776;50.958;10.994;2023-02-16T00:28:26;6.15;;;3.65;;
29906;SDS011;16776;50.958;10.994;2023-02-16T00:30:55;7.60;;;3.60;;
29906;SDS011;16776;50.958;10.994;2023-02-16T00:33:22;4.65;;;3.17;;
29906;SDS011;16776;50.958;10.994;2023-02-16T00:35:52;5.28;;;3.28;;
29906;SDS011;16776;50.958;10.994;2023-02-16T00:38:20;9.10;;;4.88;;
29906;SDS011;16776;50.958;10.994;2023-02-16T00:40:46;7.00;;;4.75;;
29906;SDS011;16776;50.958;10.994;2023-02-16T00:43:21;8.00;;;4.93;;
29906;SDS011;16776;50.958;10.994;2023-02-16T00:45:50;7.28;;;5.03;;
29906;SDS011;16776;50.958;10.994;2023-02-16T00:48:17;8.00;;;4.80;;
29906;SDS011;16776;50.958;10.994;2023-02-16T00:50:43;8.18;;;4.63;;
29906;SDS011;16776;50.958;10.994;2023-02-16T00:53:10;9.13;;;5.22;;
29906;SDS011;16776;50.958;10.994;2023-02-16T00:55:38;9.70;;;5.57;;
29906;SDS011;16776;50.958;10.994;2023-02-16T00:58:07;7.43;;;4.95;;
29906;SDS011;16776;50.958;10.994;2023-02-16T01:00:41;7.68;;;5.07;;
29906;SDS011;16776;50.958;10.994;2023-02-16T01:03:11;8.43;;;5.43;;
29906;SDS011;16776;50.958;10.994;2023-02-16T01:05:40;7.63;;;4.65;;
29906;SDS011;16776;50.958;10.994;2023-02-16T01:08:08;6.50;;;4.35;;
29906;SDS011;16776;50.958;10.994;2023-02-16T01:10:54;6.55;;;4.00;;
29906;SDS011;16776;50.958;10.994;2023-02-16T01:13:37;7.00;;;3.78;;
29906;SDS011;16776;50.958;10.994;2023-02-16T01:16:12;6.05;;;3.75;;
29906;SDS011;16776;50.958;10.994;2023-02-16T01:18:42;8.38;;;4.10;;
29906;SDS011;16776;50.958;10.994;2023-02-16T01:21:09;6.65;;;4.07;;
29906;SDS011;16776;50.958;10.994;2023-02-16T01:23:36;6.70;;;4.28;;
29906;SDS011;16776;50.958;10.994;2023-02-16T01:26:04;7.20;;;4.07;;
29906;SDS011;16776;50.958;10.994;2023-02-16T01:28:32;8.48;;;4.18;;
29906;SDS011;16776;50.958;10.994;2023-02-16T01:31:00;5.68;;;3.55;;
29906;SDS011;16776;50.958;10.994;2023-02-16T01:33:27;6.18;;;3.50;;
29906;SDS011;16776;50.958;10.994;2023-02-16T01:35:54;7.38;;;3.65;;
29906;SDS011;16776;50.958;10.994;2023-02-16T01:38:22;5.15;;;3.47;;
29906;SDS011;16776;50.958;10.994;2023-02-16T01:40:51;5.70;;;3.92;;
29906;SDS011;16776;50.958;10.994;2023-02-16T01:43:27;8.52;;;4.15;;
29906;SDS011;16776;50.958;10.994;2023-02-16T01:46:00;6.20;;;3.90;;
29906;SDS011;16776;50.958;10.994;2023-02-16T01:48:36;6.00;;;3.90;;
29906;SDS011;16776;50.958;10.994;2023-02-16T01:51:03;6.70;;;3.83;;
29906;SDS011;16776;50.958;10.994;2023-02-16T01:53:32;6.75;;;3.72;;
29906;SDS011;16776;50.958;10.994;2023-02-16T01:56:05;6.60;;;3.67;;
29906;SDS011;16776;50.958;10.994;2023-02-16T01:58:54;7.28;;;4.10;;
29906;SDS011;16776;50.958;10.994;2023-02-16T02:04:13;8.73;;;4.70;;
29906;SDS011;16776;50.958;10.994;2023-02-16T02:07:03;6.97;;;3.88;;
29906;SDS011;16776;50.958;10.994;2023-02-16T02:09:31;7.95;;;4.15;;
29906;SDS011;16776;50.958;10.994;2023-02-16T02:12:05;6.85;;;4.00;;
29906;SDS011;16776;50.958;10.994;2023-02-16T02:14:41;7.43;;;3.67;;
29906;SDS011;16776;50.958;10.994;2023-02-16T02:17:08;6.68;;;3.58;;
29906;SDS011;16776;50.958;10.994;2023-02-16T02:19:41;6.80;;;4.40;;
29906;SDS011;16776;50.958;10.994;2023-02-16T02:22:22;7.85;;;4.25;;
29906;SDS011;16776;50.958;10.994;2023-02-16T02:25:34;8.13;;;4.35;;
29906;SDS011;16776;50.958;10.994;2023-02-16T02:28:35;7.18;;;4.20;;
29906;SDS011;16776;50.958;10.994;2023-02-16T02:31:12;8.02;;;4.78;;
29906;SDS011;16776;50.958;10.994;2023-02-16T02:33:50;10.98;;;5.85;;
29906;SDS011;16776;50.958;10.994;2023-02-16T02:36:26;10.77;;;5.70;;
29906;SDS011;16776;50.958;10.994;2023-02-16T02:39:03;9.73;;;5.72;;
29906;SDS011;16776;50.958;10.994;2023-02-16T02:41:41;10.10;;;5.95;;
29906;SDS011;16776;50.958;10.994;2023-02-16T02:44:30;10.68;;;5.57;;
29906;SDS011;16776;50.958;10.994;2023-02-16T02:47:03;10.38;;;6.00;;
29906;SDS011;16776;50.958;10.994;2023-02-16T02:49:29;10.52;;;5.45;;
29906;SDS011;16776;50.958;10.994;2023-02-16T02:51:56;10.27;;;5.43;;
29906;SDS011;16776;50.958;10.994;2023-02-16T02:54:24;8.80;;;5.20;;
29906;SDS011;16776;50.958;10.994;2023-02-16T02:57:12;9.13;;;5.07;;
29906;SDS011;16776;50.958;10.994;2023-02-16T03:00:03;9.20;;;5.45;;
29906;SDS011;16776;50.958;10.994;2023-02-16T03:02:50;15.13;;;7.38;;
29906;SDS011;16776;50.958;10.994;2023-02-16T03:05:21;11.75;;;6.00;;
29906;SDS011;16776;50.958;10.994;2023-02-16T03:07:50;11.82;;;6.10;;
29906;SDS011;16776;50.958;10.994;2023-02-16T03:10:22;11.80;;;6.93;;
29906;SDS011;16776;50.958;10.994;2023-02-16T03:13:11;12.73;;;7.43;;
29906;SDS011;16776;50.958;10.994;2023-02-16T03:18:11;11.57;;;6.65;;
29906;SDS011;16776;50.958;10.994;2023-02-16T03:20:58;10.63;;;6.53;;
29906;SDS011;16776;50.958;10.994;2023-02-16T03:23:43;10.23;;;5.88;;
29906;SDS011;16776;50.958;10.994;2023-02-16T03:26:28;9.95;;;5.78;;
29906;SDS011;16776;50.958;10.994;2023-02-16T03:29:14;9.73;;;5.40;;
29906;SDS011;16776;50.958;10.994;2023-02-16T03:31:48;9.90;;;5.00;;
29906;SDS011;16776;50.958;10.994;2023-02-16T03:34:16;11.55;;;5.95;;
29906;SDS011;16776;50.958;10.994;2023-02-16T03:36:45;9.70;;;5.22;;
29906;SDS011;16776;50.958;10.994;2023-02-16T03:39:14;10.70;;;5.22;;
29906;SDS011;16776;50.958;10.994;2023-02-16T03:41:42;8.63;;;5.03;;
29906;SDS011;16776;50.958;10.994;2023-02-16T03:44:11;8.63;;;4.72;;
29906;SDS011;16776;50.958;10.994;2023-02-16T03:46:38;8.68;;;5.20;;
29906;SDS011;16776;50.958;10.994;2023-02-16T03:49:09;9.45;;;5.43;;
29906;SDS011;16776;50.958;10.994;2023-02-16T03:51:36;8.95;;;4.88;;
29906;SDS011;16776;50.958;10.994;2023-02-16T03:54:03;9.48;;;5.63;;
29906;SDS011;16776;50.958;10.994;2023-02-16T03:56:29;11.50;;;5.13;;
29906;SDS011;16776;50.958;10.994;2023-02-16T03:58:56;7.88;;;4.40;;
29906;SDS011;16776;50.958;10.994;2023-02-16T04:01:22;9.32;;;5.68;;
29906;SDS011;16776;50.958;10.994;2023-02-16T04:03:49;10.10;;;5.15;;
29906;SDS011;16776;50.958;10.994;2023-02-16T04:06:17;8.13;;;4.18;;
29906;SDS011;16776;50.958;10.994;2023-02-16T04:08:44;9.77;;;5.32;;
29906;SDS011;16776;50.958;10.994;2023-02-16T04:11:10;9.38;;;5.60;;
29906;SDS011;16776;50.958;10.994;2023-02-16T04:13:54;9.60;;;5.38;;
29906;SDS011;16776;50.958;10.994;2023-02-16T04:16:21;9.45;;;5.03;;
29906;SDS011;16776;50.958;10.994;2023-02-16T04:18:47;6.80;;;5.05;;
29906;SDS011;16776;50.958;10.994;2023-02-16T04:21:14;10.10;;;5.57;;
29906;SDS011;16776;50.958;10.994;2023-02-16T04:23:42;10.20;;;5.95;;
29906;SDS011;16776;50.958;10.994;2023-02-16T04:26:09;9.00;;;6.25;;
29906;SDS011;16776;50.958;10.994;2023-02-16T04:28:35;10.23;;;5.85;;
29906;SDS011;16776;50.958;10.994;2023-02-16T04:31:02;11.85;;;6.35;;
29906;SDS011;16776;50.958;10.994;2023-02-16T04:33:28;11.77;;;6.72;;
29906;SDS011;16776;50.958;10.994;2023-02-16T04:35:55;10.15;;;5.75;;
29906;SDS011;16776;50.958;10.994;2023-02-16T04:38:23;11.18;;;5.85;;
29906;SDS011;16776;50.958;10.994;2023-02-16T04:40:51;10.82;;;5.93;;
29906;SDS011;16776;50.958;10.994;2023-02-16T04:43:18;10.18;;;5.80;;
29906;SDS011;16776;50.958;10.994;2023-02-16T04:45:44;10.98;;;6.32;;
29906;SDS011;16776;50.958;10.994;2023-02-16T04:48:11;10.57;;;5.75;;
29906;SDS011;16776;50.958;10.994;2023-02-16T04:50:37;10.35;;;5.63;;
29906;SDS011;16776;50.958;10.994;2023-02-16T04:53:04;8.45;;;6.20;;
29906;SDS011;16776;50.958;10.994;2023-02-16T04:55:30;10.55;;;5.55;;
29906;SDS011;16776;50.958;10.994;2023-02-16T04:57:58;8.85;;;4.93;;
29906;SDS011;16776;50.958;10.994;2023-02-16T05:00:25;7.38;;;4.40;;
29906;SDS011;16776;50.958;10.994;2023-02-16T05:02:51;7.90;;;4.32;;
29906;SDS011;16776;50.958;10.994;2023-02-16T05:05:18;6.32;;;3.55;;
29906;SDS011;16776;50.958;10.994;2023-02-16T05:07:44;6.63;;;4.10;;
29906;SDS011;16776;50.958;10.994;2023-02-16T05:10:11;8.43;;;4.78;;
29906;SDS011;16776;50.958;10.994;2023-02-16T05:12:38;8.43;;;4.95;;
29906;SDS011;16776;50.958;10.994;2023-02-16T05:15:23;8.63;;;4.28;;
29906;SDS011;16776;50.958;10.994;2023-02-16T05:17:49;8.07;;;3.78;;
29906;SDS011;16776;50.958;10.994;2023-02-16T05:20:16;6.22;;;3.90;;
29906;SDS011;16776;50.958;10.994;2023-02-16T05:22:43;7.32;;;4.57;;
29906;SDS011;16776;50.958;10.994;2023-02-16T05:25:11;8.07;;;4.13;;
29906;SDS011;16776;50.958;10.994;2023-02-16T05:27:37;6.97;;;4.25;;
29906;SDS011;16776;50.958;10.994;2023-02-16T05:30:04;6.80;;;3.92;;
29906;SDS011;16776;50.958;10.994;2023-02-16T05:32:33;5.68;;;2.60;;
29906;SDS011;16776;50.958;10.994;2023-02-16T05:34:59;5.93;;;3.30;;
29906;SDS011;16776;50.958;10.994;2023-02-16T05:37:26;5.93;;;4.15;;
29906;SDS011;16776;50.958;10.994;2023-02-16T05:39:53;7.95;;;4.32;;
29906;SDS011;16776;50.958;10.994;2023-02-16T05:42:19;6.90;;;4.63;;
29906;SDS011;16776;50.958;10.994;2023-02-16T05:44:46;6.75;;;4.65;;
29906;SDS011;16776;50.958;10.994;2023-02-16T05:47:12;7.40;;;4.22;;
29906;SDS011;16776;50.958;10.994;2023-02-16T05:49:40;8.20;;;4.20;;
29906;SDS011;16776;50.958;10.994;2023-02-16T05:52:07;7.18;;;4.68;;
29906;SDS011;16776;50.958;10.994;2023-02-16T05:54:34;6.25;;;3.92;;
29906;SDS011;16776;50.958;10.994;2023-02-16T05:57:03;6.28;;;3.95;;
29906;SDS011;16776;50.958;10.994;2023-02-16T05:59:29;6.13;;;3.50;;
29906;SDS011;16776;50.958;10.994;2023-02-16T06:01:56;6.75;;;3.80;;
29906;SDS011;16776;50.958;10.994;2023-02-16T06:04:23;6.03;;;3.95;;
29906;SDS011;16776;50.958;10.994;2023-02-16T06:06:51;6.45;;;3.83;;
29906;SDS011;16776;50.958;10.994;2023-02-16T06:09:17;8.85;;;4.15;;
29906;SDS011;16776;50.958;10.994;2023-02-16T06:11:45;4.88;;;3.38;;
29906;SDS011;16776;50.958;10.994;2023-02-16T06:14:12;7.38;;;4.45;;
29906;SDS011;16776;50.958;10.994;2023-02-16T06:16:41;8.30;;;4.72;;
29906;SDS011;16776;50.958;10.994;2023-02-16T06:19:09;8.30;;;4.80;;
29906;SDS011;16776;50.958;10.994;2023-02-16T06:21:36;8.75;;;5.03;;
29906;SDS011;16776;50.958;10.994;2023-02-16T06:24:05;6.38;;;4.10;;
29906;SDS011;16776;50.958;10.994;2023-02-16T06:26:34;8.75;;;5.07;;
29906;SDS011;16776;50.958;10.994;2023-02-16T06:29:00;7.55;;;4.30;;
29906;SDS011;16776;50.958;10.994;2023-02-16T06:31:27;8.18;;;5.00;;
29906;SDS011;16776;50.958;10.994;2023-02-16T06:33:54;11.55;;;5.80;;
29906;SDS011;16776;50.958;10.994;2023-02-16T06:36:21;8.63;;;4.72;;
29906;SDS011;16776;50.958;10.994;2023-02-16T06:38:49;11.95;;;5.82;;
29906;SDS011;16776;50.958;10.994;2023-02-16T06:41:21;10.15;;;5.53;;
29906;SDS011;16776;50.958;10.994;2023-02-16T06:43:59;10.38;;;5.65;;
29906;SDS011;16776;50.958;10.994;2023-02-16T06:46:27;8.90;;;5.55;;
29906;SDS011;16776;50.958;10.994;2023-02-16T06:48:57;10.23;;;5.57;;
29906;SDS011;16776;50.958;10.994;2023-02-16T06:51:24;8.95;;;5.20;;
29906;SDS011;16776;50.958;10.994;2023-02-16T06:53:51;10.05;;;5.45;;
29906;SDS011;16776;50.958;10.994;2023-02-16T06:56:18;10.70;;;5.28;;
29906;SDS011;16776;50.958;10.994;2023-02-16T06:58:46;10.80;;;5.05;;
29906;SDS011;16776;50.958;10.994;2023-02-16T07:01:14;11.02;;;6.22;;
29906;SDS011;16776;50.958;10.994;2023-02-16T07:03:47;9.55;;;5.47;;
29906;SDS011;16776;50.958;10.994;2023-02-16T07:06:14;11.93;;;6.15;;
29906;SDS011;16776;50.958;10.994;2023-02-16T07:08:40;13.93;;;7.05;;
29906;SDS011;16776;50.958;10.994;2023-02-16T07:11:09;13.23;;;8.02;;
29906;SDS011;16776;50.958;10.994;2023-02-16T07:13:36;14.57;;;7.32;;
29906;SDS011;16776;50.958;10.994;2023-02-16T07:16:05;11.98;;;5.68;;
29906;SDS011;16776;50.958;10.994;2023-02-16T07:18:33;14.35;;;7.35;;
29906;SDS011;16776;50.958;10.994;2023-02-16T07:21:03;12.30;;;7.68;;
29906;SDS011;16776;50.958;10.994;2023-02-16T07:23:30;13.63;;;7.28;;
29906;SDS011;16776;50.958;10.994;2023-02-16T07:26:00;10.52;;;5.78;;
29906;SDS011;16776;50.958;10.994;2023-02-16T07:28:26;11.05;;;5.45;;
29906;SDS011;16776;50.958;10.994;2023-02-16T07:30:53;10.80;;;6.40;;
29906;SDS011;16776;50.958;10.994;2023-02-16T07:33:23;9.90;;;5.38;;
29906;SDS011;16776;50.958;10.994;2023-02-16T07:35:50;10.98;;;6.22;;
29906;SDS011;16776;50.958;10.994;2023-02-16T07:38:16;11.23;;;5.63;;
29906;SDS011;16776;50.958;10.994;2023-02-16T07:40:43;9.55;;;5.53;;
29906;SDS011;16776;50.958;10.994;2023-02-16T07:43:09;10.07;;;5.85;;
29906;SDS011;16776;50.958;10.994;2023-02-16T07:45:38;10.57;;;5.47;;
29906;SDS011;16776;50.958;10.994;2023-02-16T07:48:06;11.13;;;5.80;;
29906;SDS011;16776;50.958;10.994;2023-02-16T07:50:34;12.38;;;6.30;;
29906;SDS011;16776;50.958;10.994;2023-02-16T07:53:04;10.32;;;5.47;;
29906;SDS011;16776;50.958;10.994;2023-02-16T07:55:37;12.18;;;5.70;;
29906;SDS011;16776;50.958;10.994;2023-02-16T07:58:04;8.45;;;5.03;;
29906;SDS011;16776;50.958;10.994;2023-02-16T08:00:31;9.82;;;5.18;;
29906;SDS011;16776;50.958;10.994;2023-02-16T08:02:59;10.70;;;5.82;;
29906;SDS011;16776;50.958;10.994;2023-02-16T08:05:26;10.02;;;6.38;;
29906;SDS011;16776;50.958;10.994;2023-02-16T08:07:54;10.68;;;6.60;;
29906;SDS011;16776;50.958;10.994;2023-02-16T08:10:20;10.25;;;6.60;;
29906;SDS011;16776;50.958;10.994;2023-02-16T08:12:47;10.40;;;6.43;;
29906;SDS011;16776;50.958;10.994;2023-02-16T08:15:14;10.90;;;6.18;;
29906;SDS011;16776;50.958;10.994;2023-02-16T08:17:42;13.20;;;7.43;;
29906;SDS011;16776;50.958;10.994;2023-02-16T08:20:12;13.85;;;7.68;;
29906;SDS011;16776;50.958;10.994;2023-02-16T08:22:39;15.00;;;7.85;;
29906;SDS011;16776;50.958;10.994;2023-02-16T08:25:07;12.77;;;7.38;;
29906;SDS011;16776;50.958;10.994;2023-02-16T08:27:35;14.90;;;8.63;;
29906;SDS011;16776;50.958;10.994;2023-02-16T08:30:02;14.48;;;7.07;;
29906;SDS011;16776;50.958;10.994;2023-02-16T08:32:29;17.75;;;7.38;;
29906;SDS011;16776;50.958;10.994;2023-02-16T08:34:56;10.50;;;6.75;;
29906;SDS011;16776;50.958;10.994;2023-02-16T08:37:22;11.57;;;7.35;;
29906;SDS011;16776;50.958;10.994;2023-02-16T08:39:49;8.43;;;6.07;;
29906;SDS011;16776;50.958;10.994;2023-02-16T08:42:17;11.35;;;7.53;;
29906;SDS011;16776;50.958;10.994;2023-02-16T08:44:44;12.60;;;7.03;;
29906;SDS011;16776;50.958;10.994;2023-02-16T08:47:11;12.13;;;6.80;;
29906;SDS011;16776;50.958;10.994;2023-02-16T08:49:37;12.10;;;7.13;;
29906;SDS011;16776;50.958;10.994;2023-02-16T08:52:04;9.52;;;5.97;;
29906;SDS011;16776;50.958;10.994;2023-02-16T08:54:30;9.50;;;6.47;;
29906;SDS011;16776;50.958;10.994;2023-02-16T08:56:57;10.93;;;7.07;;
29906;SDS011;16776;50.958;10.994;2023-02-16T08:59:28;11.35;;;7.30;;
29906;SDS011;16776;50.958;10.994;2023-02-16T09:01:55;12.85;;;7.90;;
29906;SDS011;16776;50.958;10.994;2023-02-16T09:04:23;10.70;;;7.15;;
29906;SDS011;16776;50.958;10.994;2023-02-16T09:06:51;15.10;;;9.18;;
29906;SDS011;16776;50.958;10.994;2023-02-16T09:09:18;14.20;;;9.30;;
29906;SDS011;16776;50.958;10.994;2023-02-16T09:11:45;14.55;;;9.18;;
29906;SDS011;16776;50.958;10.994;2023-02-16T09:14:12;16.58;;;10.52;;
29906;SDS011;16776;50.958;10.994;2023-02-16T09:16:41;16.73;;;9.05;;
29906;SDS011;16776;50.958;10.994;2023-02-16T09:19:12;13.15;;;8.40;;
29906;SDS011;16776;50.958;10.994;2023-02-16T09:21:43;15.02;;;8.88;;
29906;SDS011;16776;50.958;10.994;2023-02-16T09:24:11;13.32;;;8.05;;
29906;SDS011;16776;50.958;10.994;2023-02-16T09:26:38;14.68;;;9.02;;
29906;SDS011;16776;50.958;10.994;2023-02-16T09:29:07;13.98;;;8.65;;
29906;SDS011;16776;50.958;10.994;2023-02-16T09:31:35;12.80;;;7.72;;
29906;SDS011;16776;50.958;10.994;2023-02-16T09:34:07;11.90;;;8.00;;
29906;SDS011;16776;50.958;10.994;2023-02-16T09:36:40;11.80;;;7.47;;
29906;SDS011;16776;50.958;10.994;2023-02-16T09:39:09;11.52;;;7.20;;
29906;SDS011;16776;50.958;10.994;2023-02-16T09:41:40;12.85;;;7.65;;
29906;SDS011;16776;50.958;10.994;2023-02-16T09:44:26;13.55;;;8.32;;
29906;SDS011;16776;50.958;10.994;2023-02-16T09:47:03;13.80;;;8.07;;
29906;SDS011;16776;50.958;10.994;2023-02-16T09:49:39;11.50;;;7.82;;
29906;SDS011;16776;50.958;10.994;2023-02-16T09:52:11;12.20;;;8.43;;
29906;SDS011;16776;50.958;10.994;2023-02-16T09:54:46;14.18;;;8.50;;
29906;SDS011;16776;50.958;10.994;2023-02-16T09:57:18;14.13;;;8.15;;
29906;SDS011;16776;50.958;10.994;2023-02-16T09:59:53;9.15;;;6.55;;
29906;SDS011;16776;50.958;10.994;2023-02-16T10:02:39;11.23;;;7.13;;
29906;SDS011;16776;50.958;10.994;2023-02-16T10:05:19;12.82;;;7.95;;
29906;SDS011;16776;50.958;10.994;2023-02-16T10:07:54;12.55;;;8.70;;
29906;SDS011;16776;50.958;10.994;2023-02-16T10:10:24;13.30;;;7.95;;
29906;SDS011;16776;50.958;10.994;2023-02-16T10:12:57;13.68;;;9.10;;
29906;SDS011;16776;50.958;10.994;2023-02-16T10:15:29;14.02;;;9.23;;
29906;SDS011;16776;50.958;10.994;2023-02-16T10:17:58;12.38;;;8.05;;
29906;SDS011;16776;50.958;10.994;2023-02-16T10:20:30;15.00;;;10.00;;
29906;SDS011;16776;50.958;10.994;2023-02-16T10:23:01;12.13;;;7.97;;
29906;SDS011;16776;50.958;10.994;2023-02-16T10:25:36;12.75;;;8.63;;
29906;SDS011;16776;50.958;10.994;2023-02-16T10:28:12;10.48;;;6.97;;
29906;SDS011;16776;50.958;10.994;2023-02-16T10:33:13;7.25;;;5.50;;
29906;SDS011;16776;50.958;10.994;2023-02-16T10:35:45;10.27;;;6.05;;
29906;SDS011;16776;50.958;10.994;2023-02-16T10:38:13;10.43;;;6.63;;
29906;SDS011;16776;50.958;10.994;2023-02-16T10:40:50;10.50;;;6.72;;
29906;SDS011;16776;50.958;10.994;2023-02-16T10:43:20;9.55;;;6.18;;
29906;SDS011;16776;50.958;10.994;2023-02-16T10:45:56;10.27;;;7.07;;
29906;SDS011;16776;50.958;10.994;2023-02-16T10:48:26;9.60;;;5.97;;
29906;SDS011;16776;50.958;10.994;2023-02-16T10:50:55;9.13;;;6.68;;
29906;SDS011;16776;50.958;10.994;2023-02-16T10:53:30;9.45;;;6.68;;
29906;SDS011;16776;50.958;10.994;2023-02-16T10:56:19;8.52;;;6.82;;
29906;SDS011;16776;50.958;10.994;2023-02-16T10:59:04;8.77;;;6.03;;
29906;SDS011;16776;50.958;10.994;2023-02-16T11:01:34;10.50;;;6.50;;
29906;SDS011;16776;50.958;10.994;2023-02-16T11:04:02;10.43;;;7.07;;
29906;SDS011;16776;50.958;10.994;2023-02-16T11:06:30;7.88;;;6.03;;
29906;SDS011;16776;50.958;10.994;2023-02-16T11:08:59;7.78;;;5.82;;
29906;SDS011;16776;50.958;10.994;2023-02-16T11:11:28;8.23;;;5.38;;
29906;SDS011;16776;50.958;10.994;2023-02-16T11:14:01;7.25;;;5.80;;
29906;SDS011;16776;50.958;10.994;2023-02-16T11:16:29;8.18;;;5.00;;
29906;SDS011;16776;50.958;10.994;2023-02-16T11:18:57;7.03;;;5.32;;
29906;SDS011;16776;50.958;10.994;2023-02-16T11:24:11;6.75;;;4.78;;
29906;SDS011;16776;50.958;10.994;2023-02-16T11:26:50;6.82;;;5.22;;
29906;SDS011;16776;50.958;10.994;2023-02-16T11:29:26;8.50;;;6.00;;
29906;SDS011;16776;50.958;10.994;2023-02-16T11:31:52;8.55;;;5.55;;
29906;SDS011;16776;50.958;10.994;2023-02-16T11:34:23;10.82;;;6.25;;
29906;SDS011;16776;50.958;10.994;2023-02-16T11:37:01;7.03;;;5.45;;
29906;SDS011;16776;50.958;10.994;2023-02-16T11:39:31;6.75;;;5.20;;
29906;SDS011;16776;50.958;10.994;2023-02-16T11:42:03;7.43;;;4.80;;
29906;SDS011;16776;50.958;10.994;2023-02-16T11:44:32;5.40;;;4.40;;
29906;SDS011;16776;50.958;10.994;2023-02-16T11:47:03;7.55;;;4.80;;
29906;SDS011;16776;50.958;10.994;2023-02-16T11:49:32;7.97;;;5.40;;
29906;SDS011;16776;50.958;10.994;2023-02-16T11:52:16;7.78;;;5.13;;
29906;SDS011;16776;50.958;10.994;2023-02-16T11:54:47;7.05;;;5.28;;
29906;SDS011;16776;50.958;10.994;2023-02-16T11:57:13;7.72;;;5.43;;
29906;SDS011;16776;50.958;10.994;2023-02-16T11:59:47;8.45;;;5.90;;
29906;SDS011;16776;50.958;10.994;2023-02-16T12:02:23;6.47;;;5.60;;
29906;SDS011;16776;50.958;10.994;2023-02-16T12:05:20;7.50;;;5.70;;
29906;SDS011;16776;50.958;10.994;2023-02-16T12:07:57;6.68;;;4.53;;
29906;SDS011;16776;50.958;10.994;2023-02-16T12:10:41;6.40;;;4.80;;
29906;SDS011;16776;50.958;10.994;2023-02-16T12:13:17;8.05;;;5.40;;
29906;SDS011;16776;50.958;10.994;2023-02-16T12:15:54;8.13;;;6.20;;
29906;SDS011;16776;50.958;10.994;2023-02-16T12:18:31;8.15;;;5.55;;
29906;SDS011;16776;50.958;10.994;2023-02-16T12:21:09;5.57;;;4.43;;
29906;SDS011;16776;50.958;10.994;2023-02-16T12:23:48;6.72;;;4.72;;
29906;SDS011;16776;50.958;10.994;2023-02-16T12:26:39;9.02;;;5.53;;
29906;SDS011;16776;50.958;10.994;2023-02-16T12:29:16;8.77;;;5.85;;
29906;SDS011;16776;50.958;10.994;2023-02-16T12:32:00;7.57;;;5.30;;
29906;SDS011;16776;50.958;10.994;2023-02-16T12:34:39;8.13;;;5.65;;
29906;SDS011;16776;50.958;10.994;2023-02-16T12:37:20;8.13;;;4.90;;
29906;SDS011;16776;50.958;10.994;2023-02-16T12:39:53;9.00;;;5.28;;
29906;SDS011;16776;50.958;10.994;2023-02-16T12:42:42;8.95;;;5.80;;
29906;SDS011;16776;50.958;10.994;2023-02-16T12:45:20;7.45;;;5.28;;
29906;SDS011;16776;50.958;10.994;2023-02-16T12:47:51;8.50;;;4.80;;
29906;SDS011;16776;50.958;10.994;2023-02-16T12:52:51;6.60;;;4.40;;
29906;SDS011;16776;50.958;10.994;2023-02-16T12:55:25;6.90;;;5.03;;
29906;SDS011;16776;50.958;10.994;2023-02-16T13:00:29;5.55;;;3.78;;
29906;SDS011;16776;50.958;10.994;2023-02-16T13:03:07;7.55;;;5.07;;
29906;SDS011;16776;50.958;10.994;2023-02-16T13:05:42;7.90;;;4.75;;
29906;SDS011;16776;50.958;10.994;2023-02-16T13:08:14;6.85;;;4.88;;
29906;SDS011;16776;50.958;10.994;2023-02-16T13:10:53;6.28;;;4.78;;
29906;SDS011;16776;50.958;10.994;2023-02-16T13:13:24;7.35;;;5.15;;
29906;SDS011;16776;50.958;10.994;2023-02-16T13:15:59;7.75;;;5.20;;
29906;SDS011;16776;50.958;10.994;2023-02-16T13:18:32;6.70;;;4.70;;
29906;SDS011;16776;50.958;10.994;2023-02-16T13:21:04;6.35;;;4.10;;
29906;SDS011;16776;50.958;10.994;2023-02-16T13:23:50;7.68;;;4.38;;
29906;SDS011;16776;50.958;10.994;2023-02-16T13:26:33;6.20;;;3.83;;
29906;SDS011;16776;50.958;10.994;2023-02-16T13:32:05;5.40;;;3.95;;
29906;SDS011;16776;50.958;10.994;2023-02-16T13:34:53;4.78;;;4.00;;
29906;SDS011;16776;50.958;10.994;2023-02-16T13:37:39;6.45;;;3.85;;
29906;SDS011;16776;50.958;10.994;2023-02-16T13:40:24;4.43;;;3.22;;
29906;SDS011;16776;50.958;10.994;2023-02-16T13:43:07;5.22;;;3.97;;
29906;SDS011;16776;50.958;10.994;2023-02-16T13:45:44;6.22;;;4.00;;
29906;SDS011;16776;50.958;10.994;2023-02-16T13:48:20;4.50;;;3.30;;
29906;SDS011;16776;50.958;10.994;2023-02-16T13:50:53;4.55;;;3.63;;
29906;SDS011;16776;50.958;10.994;2023-02-16T13:53:22;6.70;;;4.25;;
29906;SDS011;16776;50.958;10.994;2023-02-16T13:55:49;5.72;;;4.38;;
29906;SDS011;16776;50.958;10.994;2023-02-16T13:58:48;6.38;;;3.97;;
29906;SDS011;16776;50.958;10.994;2023-02-16T14:01:35;4.68;;;3.08;;
29906;SDS011;16776;50.958;10.994;2023-02-16T14:04:04;5.45;;;3.95;;
29906;SDS011;16776;50.958;10.994;2023-02-16T14:06:36;7.05;;;4.72;;
29906;SDS011;16776;50.958;10.994;2023-02-16T14:12:16;7.78;;;4.85;;
29906;SDS011;16776;50.958;10.994;2023-02-16T14:17:27;6.55;;;4.75;;
29906;SDS011;16776;50.958;10.994;2023-02-16T14:19:56;7.07;;;4.97;;
29906;SDS011;16776;50.958;10.994;2023-02-16T14:22:31;7.30;;;5.28;;
29906;SDS011;16776;50.958;10.994;2023-02-16T14:25:03;6.75;;;4.75;;
29906;SDS011;16776;50.958;10.994;2023-02-16T14:27:38;5.95;;;4.50;;
29906;SDS011;16776;50.958;10.994;2023-02-16T14:30:16;8.32;;;5.38;;
29906;SDS011;16776;50.958;10.994;2023-02-16T14:32:48;6.90;;;4.60;;
29906;SDS011;16776;50.958;10.994;2023-02-16T14:35:18;5.50;;;4.40;;
29906;SDS011;16776;50.958;10.994;2023-02-16T14:37:52;7.28;;;4.63;;
29906;SDS011;16776;50.958;10.994;2023-02-16T14:40:22;6.07;;;4.07;;
29906;SDS011;16776;50.958;10.994;2023-02-16T14:43:10;6.53;;;4.70;;
29906;SDS011;16776;50.958;10.994;2023-02-16T14:46:08;6.63;;;4.80;;
29906;SDS011;16776;50.958;10.994;2023-02-16T14:55:15;6.38;;;4.90;;
29906;SDS011;16776;50.958;10.994;2023-02-16T14:58:04;7.22;;;4.88;;
29906;SDS011;16776;50.958;10.994;2023-02-16T15:00:48;6.10;;;4.25;;
29906;SDS011;16776;50.958;10.994;2023-02-16T15:03:20;5.72;;;4.50;;
29906;SDS011;16776;50.958;10.994;2023-02-16T15:05:48;8.00;;;4.97;;
29906;SDS011;16776;50.958;10.994;2023-02-16T15:08:21;8.05;;;5.15;;
29906;SDS011;16776;50.958;10.994;2023-02-16T15:10:50;7.68;;;4.88;;
29906;SDS011;16776;50.958;10.994;2023-02-16T15:13:19;7.82;;;5.10;;
29906;SDS011;16776;50.958;10.994;2023-02-16T15:15:47;7.88;;;4.95;;
29906;SDS011;16776;50.958;10.994;2023-02-16T15:18:17;6.78;;;5.18;;
29906;SDS011;16776;50.958;10.994;2023-02-16T15:20:48;8.15;;;5.47;;
29906;SDS011;16776;50.958;10.994;2023-02-16T15:23:18;8.50;;;5.65;;
29906;SDS011;16776;50.958;10.994;2023-02-16T15:25:52;7.85;;;5.50;;
29906;SDS011;16776;50.958;10.994;2023-02-16T15:28:21;7.60;;;5.50;;